»·PEaware :: N8833D KGEG-KBFI

N8833D :: KGEG-KBFI

FLIGHT INFORMATION

Flight Status: Arrived
Operator: Privately registered:
United States
More flights under this callsign
Pilot: Cooper L. (8467)
Aircraft: BOEING 727-200
(B722)
More flights by this aircraft type
Origin: KGEG Spokane Intl
United States
Destination: KBFI Boeing Field/King Co Intl
United States
More flights between these airports :: More routes between these airports
Route: GEG3 YKM CHINS1
File this flight plan on PilotEdge
Remarks:
Altitude:
(Current/Filed)
18,000ft
Speed:
(Current/Filed)
330kts
Departed: 09-Oct-15 08:44 AM
Arrived: 09-Oct-15 09:33 AM
Distance/Time
Traveled:
193nm/0:49
Distance/Time
To Go:
Arrived

Flight Plot

Page will automatically refresh every two minutes.


Map Options




Map Legend


Flown Route
Filed Route
Departure Airport
Arrival Airport
Navaid (VOR, NDB)
Fix

Horizontal Profiles

Position Reports

Time Latitude Longitude Heading Altitude Ground
Speed
09-Oct-15 08:28 47.614383 -117.529936 111 2387ft 0kts
09-Oct-15 08:29 47.614383 -117.529936 111 2387ft 0kts
09-Oct-15 08:30 47.614383 -117.529936 111 2387ft 0kts
09-Oct-15 08:31 47.614383 -117.529936 111 2387ft 0kts
09-Oct-15 08:32 47.614383 -117.529936 111 2387ft 0kts
09-Oct-15 08:33 47.614394 -117.529976 112 2386ft 3kts
09-Oct-15 08:34 47.615034 -117.530418 213 2386ft 3kts
09-Oct-15 08:35 47.615242 -117.530052 271 2386ft 0kts
09-Oct-15 08:36 47.615242 -117.530052 271 2387ft 0kts
09-Oct-15 08:37 47.615242 -117.530052 271 2387ft 0kts
09-Oct-15 08:38 47.615268 -117.533494 268 2386ft 15kts
09-Oct-15 08:39 47.615291 -117.538225 265 2386ft 18kts
09-Oct-15 08:40 47.611434 -117.544617 227 2386ft 18kts
09-Oct-15 08:41 47.609404 -117.548820 314 2386ft 6kts
09-Oct-15 08:42 47.610776 -117.549029 45 2387ft 25kts
09-Oct-15 08:43 47.634324 -117.514760 36 3303ft 147kts
09-Oct-15 08:44 47.675654 -117.466753 32 4927ft 224kts
09-Oct-15 08:45 47.716154 -117.499427 266 6744ft 272kts
09-Oct-15 08:46 47.712422 -117.599738 278 10376ft 235kts
09-Oct-15 08:47 47.682619 -117.696111 240 11177ft 306kts
09-Oct-15 08:48 47.640415 -117.801276 241 13152ft 325kts
09-Oct-15 08:49 47.594421 -117.919539 242 15311ft 337kts
09-Oct-15 08:50 47.546822 -118.042244 242 17267ft 348kts
09-Oct-15 08:51 47.497889 -118.167881 242 19022ft 358kts
09-Oct-15 08:52 47.443926 -118.305659 241 18952ft 415kts
09-Oct-15 08:53 47.382892 -118.458026 241 18943ft 456kts
09-Oct-15 08:54 47.317819 -118.622258 241 18871ft 469kts
09-Oct-15 08:55 47.260121 -118.767230 241 18782ft 471kts
09-Oct-15 08:56 47.193677 -118.933239 241 18669ft 471kts
09-Oct-15 08:57 47.126814 -119.099282 241 18631ft 470kts
09-Oct-15 08:58 47.063404 -119.256539 241 18575ft 470kts
09-Oct-15 08:59 46.996318 -119.421288 241 18517ft 470kts
09-Oct-15 09:00 46.928963 -119.585632 241 18449ft 466kts
09-Oct-15 09:01 46.863089 -119.745423 241 18278ft 455kts
09-Oct-15 09:02 46.797713 -119.903082 241 18085ft 454kts
09-Oct-15 09:03 46.731959 -120.060746 241 17898ft 453kts
09-Oct-15 09:04 46.666794 -120.216760 240 17747ft 453kts
09-Oct-15 09:05 46.601057 -120.372736 240 17606ft 453kts
09-Oct-15 09:06 46.547575 -120.534998 268 17367ft 449kts
09-Oct-15 09:07 46.605110 -120.677492 325 17097ft 477kts
09-Oct-15 09:08 46.719380 -120.768653 311 16907ft 465kts
09-Oct-15 09:09 46.794499 -120.903721 302 16308ft 425kts
09-Oct-15 09:10 46.832812 -121.053277 282 15348ft 386kts
09-Oct-15 09:11 46.889437 -121.181380 301 14346ft 375kts
09-Oct-15 09:12 46.948793 -121.301030 300 13325ft 364kts
09-Oct-15 09:13 47.006809 -121.419293 300 12499ft 351kts
09-Oct-15 09:14 47.062669 -121.533750 299 11664ft 341kts
09-Oct-15 09:15 47.124741 -121.637263 302 10740ft 333kts
09-Oct-15 09:16 47.173766 -121.736195 298 9197ft 273kts
09-Oct-15 09:17 47.214586 -121.824247 298 8050ft 264kts
09-Oct-15 09:18 47.255329 -121.913104 299 6769ft 264kts
09-Oct-15 09:19 47.296919 -122.001315 310 5612ft 263kts
09-Oct-15 09:20 47.353370 -122.058987 327 4607ft 264kts
09-Oct-15 09:21 47.412862 -122.108251 329 3718ft 259kts
09-Oct-15 09:22 47.465920 -122.172762 302 2840ft 251kts
09-Oct-15 09:23 47.496865 -122.257925 303 2015ft 247kts
09-Oct-15 09:24 47.546745 -122.325639 320 1287ft 250kts
09-Oct-15 09:25 47.597507 -122.392846 315 1957ft 247kts
09-Oct-15 09:26 47.644697 -122.466130 314 2398ft 247kts
09-Oct-15 09:27 47.691370 -122.429531 90 1983ft 241kts
09-Oct-15 09:28 47.643964 -122.385022 179 1612ft 203kts
09-Oct-15 09:29 47.604182 -122.365115 150 1402ft 133kts
09-Oct-15 09:30 47.572360 -122.338332 151 859ft 134kts
09-Oct-15 09:31 47.544145 -122.314460 148 101ft 123kts
09-Oct-15 09:32 47.526966 -122.299435 97 32ft 12kts
09-Oct-15 09:33 47.527570 -122.298543 22 32ft 8kts
09-Oct-15 09:34 47.529337 -122.297386 61 32ft 0kts

Navigation Log

Ident Type
Flight plan parsing failed, navigation log unavailable